createdAt,value
2023-01-15T00:00:38.944Z,1026.56
2023-01-15T00:01:39.541Z,1026.62
2023-01-15T00:02:40.216Z,1026.58
2023-01-15T00:03:40.814Z,1026.57
2023-01-15T00:04:41.413Z,1026.59
2023-01-15T00:05:42.852Z,1026.56
2023-01-15T00:06:43.455Z,1026.50
2023-01-15T00:07:44.056Z,1026.54
2023-01-15T00:08:44.653Z,1026.51
2023-01-15T00:09:45.309Z,1026.55
2023-01-15T00:10:45.900Z,1026.46
2023-01-15T00:11:46.499Z,1026.47
2023-01-15T00:12:47.103Z,1026.46
2023-01-15T00:13:47.694Z,1026.42
2023-01-15T00:14:48.297Z,1026.44
2023-01-15T00:15:48.917Z,1026.42
2023-01-15T00:16:49.518Z,1026.38
2023-01-15T00:17:50.113Z,1026.37
2023-01-15T00:18:50.784Z,1026.43
2023-01-15T00:19:51.377Z,1026.46
2023-01-15T00:20:51.980Z,1026.43
2023-01-15T00:21:52.591Z,1026.45
2023-01-15T00:22:53.235Z,1026.52
2023-01-15T00:23:53.830Z,1026.35
2023-01-15T00:24:54.433Z,1026.46
2023-01-15T00:25:55.033Z,1026.41
2023-01-15T00:26:55.632Z,1026.37
2023-01-15T00:27:56.226Z,1026.35
2023-01-15T00:28:56.828Z,1026.30
2023-01-15T00:29:57.420Z,1026.32
2023-01-15T00:30:58.882Z,1026.19
2023-01-15T00:31:59.489Z,1026.29
2023-01-15T00:33:00.930Z,1026.24
2023-01-15T00:34:02.325Z,1026.32
2023-01-15T00:35:02.928Z,1026.25
2023-01-15T00:36:03.668Z,1026.34
2023-01-15T00:37:05.169Z,1026.40
2023-01-15T00:38:05.799Z,1026.34
2023-01-15T00:39:06.401Z,1026.36
2023-01-15T00:40:06.995Z,1026.35
2023-01-15T00:41:07.600Z,1026.36
2023-01-15T00:42:08.197Z,1026.26
2023-01-15T00:43:08.806Z,1026.24
2023-01-15T00:44:09.397Z,1026.25
2023-01-15T00:45:10.072Z,1026.21
2023-01-15T00:46:10.869Z,1026.28
2023-01-15T00:47:11.456Z,1026.21
2023-01-15T00:48:12.048Z,1026.29
2023-01-15T00:49:12.649Z,1026.26
2023-01-15T00:50:13.241Z,1026.25
2023-01-15T00:51:13.844Z,1026.24
2023-01-15T00:52:14.451Z,1026.24
2023-01-15T00:53:15.042Z,1026.28
2023-01-15T00:54:15.632Z,1026.16
2023-01-15T00:55:16.242Z,1026.17
2023-01-15T00:56:16.895Z,1026.08
2023-01-15T00:57:17.496Z,1026.08
2023-01-15T00:58:18.089Z,1026.09
2023-01-15T00:59:18.691Z,1026.13
2023-01-15T01:00:19.291Z,1026.01
2023-01-15T01:01:20.030Z,1026.06
2023-01-15T01:02:20.704Z,1026.08
2023-01-15T01:03:21.367Z,1026.09
2023-01-15T01:04:21.962Z,1026.06
2023-01-15T01:05:22.564Z,1026.01
2023-01-15T01:06:23.970Z,1025.95
2023-01-15T01:07:24.563Z,1025.90
2023-01-15T01:08:25.160Z,1025.90
2023-01-15T01:09:25.765Z,1025.90
2023-01-15T01:10:26.449Z,1025.91
2023-01-15T01:11:27.076Z,1025.87
2023-01-15T01:12:27.693Z,1025.93
2023-01-15T01:13:28.298Z,1025.91
2023-01-15T01:14:28.894Z,1025.92
2023-01-15T01:15:29.498Z,1025.90
2023-01-15T01:16:30.191Z,1025.84
2023-01-15T01:17:30.796Z,1025.80
2023-01-15T01:18:31.403Z,1025.83
2023-01-15T01:19:31.995Z,1025.79
2023-01-15T01:20:32.589Z,1025.80
2023-01-15T01:21:33.190Z,1025.86
2023-01-15T01:22:33.790Z,1025.82
2023-01-15T01:23:34.453Z,1025.77
2023-01-15T01:24:35.055Z,1025.72
2023-01-15T01:25:35.651Z,1025.72
2023-01-15T01:26:36.247Z,1025.69
2023-01-15T01:27:36.851Z,1025.59
2023-01-15T01:28:37.451Z,1025.64
2023-01-15T01:29:38.055Z,1025.65
2023-01-15T01:30:38.646Z,1025.53
2023-01-15T01:31:39.264Z,1025.63
2023-01-15T01:32:39.883Z,1025.54
2023-01-15T01:33:41.337Z,1025.58
2023-01-15T01:34:41.931Z,1025.62
2023-01-15T01:35:42.531Z,1025.52
2023-01-15T01:36:43.123Z,1025.45
2023-01-15T01:37:43.775Z,1025.50
2023-01-15T01:38:44.372Z,1025.47
2023-01-15T01:39:44.971Z,1025.43
2023-01-15T01:40:45.566Z,1025.52
2023-01-15T01:41:46.215Z,1025.48
2023-01-15T01:42:46.816Z,1025.46
2023-01-15T01:43:47.465Z,1025.51
2023-01-15T01:44:48.058Z,1025.35
2023-01-15T01:45:48.708Z,1025.44
2023-01-15T01:46:49.316Z,1025.44
2023-01-15T01:47:49.966Z,1025.48
2023-01-15T01:48:50.563Z,1025.56
2023-01-15T01:49:51.168Z,1025.59
2023-01-15T01:50:51.764Z,1025.43
2023-01-15T01:51:52.367Z,1025.36
2023-01-15T01:52:52.963Z,1025.37
2023-01-15T01:53:53.568Z,1025.38
2023-01-15T01:54:54.171Z,1025.38
2023-01-15T01:55:54.768Z,1025.71
2023-01-15T01:56:55.366Z,1025.84
2023-01-15T01:57:55.967Z,1026.00
2023-01-15T01:58:56.564Z,1025.98
2023-01-15T01:59:57.171Z,1026.02
2023-01-15T02:00:57.866Z,1025.98
2023-01-15T02:01:58.602Z,1025.97
2023-01-15T02:02:59.218Z,1026.07
2023-01-15T02:03:59.881Z,1025.92
2023-01-15T02:05:00.474Z,1025.92
2023-01-15T02:06:01.088Z,1025.96
2023-01-15T02:07:01.721Z,1025.97
2023-01-15T02:08:02.358Z,1026.01
2023-01-15T02:09:02.973Z,1025.96
2023-01-15T02:10:03.561Z,1025.96
2023-01-15T02:11:04.151Z,1026.03
2023-01-15T02:12:04.757Z,1025.93
2023-01-15T02:13:05.366Z,1025.98
2023-01-15T02:14:05.965Z,1026.01
2023-01-15T02:15:06.587Z,1025.94
2023-01-15T02:16:07.281Z,1026.04
2023-01-15T02:17:07.894Z,1026.09
2023-01-15T02:18:08.490Z,1026.05
2023-01-15T02:19:09.086Z,1026.11
2023-01-15T02:20:09.689Z,1025.96
2023-01-15T02:21:10.285Z,1025.92
2023-01-15T02:22:10.903Z,1025.98
2023-01-15T02:23:11.535Z,1025.94
2023-01-15T02:24:12.139Z,1025.92
2023-01-15T02:25:12.734Z,1025.93
2023-01-15T02:26:13.337Z,1025.95
2023-01-15T02:27:13.931Z,1025.91
2023-01-15T02:28:14.535Z,1025.94
2023-01-15T02:29:15.131Z,1025.98
2023-01-15T02:30:15.814Z,1026.01
2023-01-15T02:31:16.428Z,1025.95
2023-01-15T02:32:17.023Z,1026.03
2023-01-15T02:33:17.613Z,1026.01
2023-01-15T02:34:18.221Z,1026.01
2023-01-15T02:35:18.937Z,1026.00
2023-01-15T02:36:19.535Z,1026.01
2023-01-15T02:37:20.131Z,1025.97
2023-01-15T02:38:20.731Z,1025.93
2023-01-15T02:39:21.326Z,1025.99
2023-01-15T02:40:21.928Z,1025.92
2023-01-15T02:41:22.776Z,1025.93
2023-01-15T02:42:23.376Z,1025.96
2023-01-15T02:43:23.967Z,1025.98
2023-01-15T02:44:25.418Z,1025.96
2023-01-15T02:45:26.082Z,1025.97
2023-01-15T02:46:26.707Z,1026.02
2023-01-15T02:47:27.303Z,1026.04
2023-01-15T02:48:27.903Z,1026.14
2023-01-15T02:49:28.499Z,1026.08
2023-01-15T02:50:29.118Z,1025.97
2023-01-15T02:51:29.697Z,1026.05
2023-01-15T02:52:30.302Z,1025.98
2023-01-15T02:53:30.914Z,1026.06
2023-01-15T02:54:31.561Z,1026.05
2023-01-15T02:55:32.156Z,1026.10
2023-01-15T02:56:32.762Z,1026.15
2023-01-15T02:57:33.353Z,1026.09
2023-01-15T02:58:34.103Z,1026.20
2023-01-15T02:59:34.696Z,1026.14
2023-01-15T03:00:35.299Z,1026.17
2023-01-15T03:01:35.961Z,1026.28
2023-01-15T03:02:36.722Z,1026.34
2023-01-15T03:03:37.267Z,1026.22
2023-01-15T03:04:37.867Z,1026.28
2023-01-15T03:05:38.539Z,1026.27
2023-01-15T03:06:39.153Z,1026.23
2023-01-15T03:07:39.757Z,1026.30
2023-01-15T03:08:40.361Z,1026.26
2023-01-15T03:09:41.104Z,1026.23
2023-01-15T03:10:41.717Z,1026.31
2023-01-15T03:11:42.306Z,1026.23
2023-01-15T03:12:42.905Z,1026.22
2023-01-15T03:13:43.518Z,1026.25
2023-01-15T03:14:44.205Z,1026.28
2023-01-15T03:15:44.798Z,1026.31
2023-01-15T03:16:45.428Z,1026.24
2023-01-15T03:17:46.057Z,1026.21
2023-01-15T03:18:46.658Z,1026.24
2023-01-15T03:19:47.250Z,1026.23
2023-01-15T03:20:47.855Z,1026.31
2023-01-15T03:21:48.447Z,1026.35
2023-01-15T03:22:49.052Z,1026.33
2023-01-15T03:23:49.644Z,1026.35
2023-01-15T03:24:50.257Z,1026.34
2023-01-15T03:25:50.914Z,1026.34
2023-01-15T03:26:51.519Z,1026.37
2023-01-15T03:27:52.112Z,1026.43
2023-01-15T03:28:52.717Z,1026.41
2023-01-15T03:29:53.311Z,1026.43
2023-01-15T03:30:53.940Z,1026.41
2023-01-15T03:31:54.567Z,1026.45
2023-01-15T03:32:55.221Z,1026.47
2023-01-15T03:33:55.802Z,1026.40
2023-01-15T03:34:56.421Z,1026.45
2023-01-15T03:35:57.007Z,1026.38
2023-01-15T03:36:58.408Z,1026.45
2023-01-15T03:37:59.004Z,1026.36
2023-01-15T03:38:59.606Z,1026.45
2023-01-15T03:40:00.198Z,1026.42
2023-01-15T03:41:00.807Z,1026.46
2023-01-15T03:42:01.449Z,1026.47
2023-01-15T03:43:02.048Z,1026.49
2023-01-15T03:44:02.644Z,1026.44
2023-01-15T03:45:03.261Z,1026.48
2023-01-15T03:46:03.888Z,1026.54
2023-01-15T03:47:04.566Z,1026.59
2023-01-15T03:48:05.211Z,1026.61
2023-01-15T03:49:05.874Z,1026.55
2023-01-15T03:50:06.526Z,1026.55
2023-01-15T03:51:07.119Z,1026.53
2023-01-15T03:52:07.722Z,1026.52
2023-01-15T03:53:08.320Z,1026.60
2023-01-15T03:54:08.941Z,1026.69
2023-01-15T03:55:09.567Z,1026.65
2023-01-15T03:56:10.168Z,1026.69
2023-01-15T03:57:10.754Z,1026.64
2023-01-15T03:58:11.352Z,1026.69
2023-01-15T03:59:11.955Z,1026.67
2023-01-15T04:00:12.549Z,1026.63
2023-01-15T04:01:13.275Z,1026.66
2023-01-15T04:02:13.978Z,1026.65
2023-01-15T04:03:14.609Z,1026.68
2023-01-15T04:04:15.239Z,1026.67
2023-01-15T04:05:15.819Z,1026.69
2023-01-15T04:06:16.465Z,1026.76
2023-01-15T04:07:17.066Z,1026.68
2023-01-15T04:08:18.128Z,1026.67
2023-01-15T04:09:18.751Z,1026.75
2023-01-15T04:10:19.342Z,1026.71
2023-01-15T04:11:19.946Z,1026.73
2023-01-15T04:12:20.545Z,1026.80
2023-01-15T04:13:21.140Z,1026.78
2023-01-15T04:14:21.734Z,1026.82
2023-01-15T04:15:22.334Z,1026.85
2023-01-15T04:16:22.939Z,1026.84
2023-01-15T04:17:23.532Z,1026.82
2023-01-15T04:18:24.999Z,1026.82
2023-01-15T04:19:25.580Z,1026.87
2023-01-15T04:20:26.181Z,1026.84
2023-01-15T04:21:26.775Z,1026.89
2023-01-15T04:22:27.396Z,1026.83
2023-01-15T04:23:27.973Z,1026.96
2023-01-15T04:24:28.579Z,1026.93
2023-01-15T04:25:29.177Z,1026.95
2023-01-15T04:26:29.774Z,1026.92
2023-01-15T04:27:30.397Z,1026.94
2023-01-15T04:28:30.972Z,1026.90
2023-01-15T04:29:31.569Z,1027.00
2023-01-15T04:30:32.177Z,1026.98
2023-01-15T04:31:32.766Z,1026.90
2023-01-15T04:32:33.371Z,1027.06
2023-01-15T04:33:33.966Z,1027.05
2023-01-15T04:34:34.572Z,1026.94
2023-01-15T04:35:35.237Z,1027.00
2023-01-15T04:36:35.845Z,1027.04
2023-01-15T04:37:36.433Z,1027.05
2023-01-15T04:38:37.041Z,1027.06
2023-01-15T04:39:37.628Z,1027.02
2023-01-15T04:40:38.234Z,1027.03
2023-01-15T04:41:38.824Z,1027.05
2023-01-15T04:42:39.429Z,1027.12
2023-01-15T04:43:40.025Z,1027.07
2023-01-15T04:44:40.631Z,1027.13
2023-01-15T04:45:41.220Z,1027.05
2023-01-15T04:46:41.823Z,1027.08
2023-01-15T04:47:42.416Z,1027.03
2023-01-15T04:48:43.025Z,1027.00
2023-01-15T04:49:43.611Z,1027.10
2023-01-15T04:50:44.315Z,1027.16
2023-01-15T04:51:44.915Z,1027.18
2023-01-15T04:52:45.510Z,1027.21
2023-01-15T04:53:46.105Z,1027.16
2023-01-15T04:54:46.757Z,1027.18
2023-01-15T04:55:47.474Z,1027.21
2023-01-15T04:56:48.082Z,1027.21
2023-01-15T04:57:48.667Z,1027.18
2023-01-15T04:58:49.269Z,1027.21
2023-01-15T04:59:49.864Z,1027.25
2023-01-15T05:00:50.469Z,1027.20
2023-01-15T05:02:03.101Z,1027.21
2023-01-15T05:02:52.622Z,1027.27
2023-01-15T05:03:54.058Z,1027.26
2023-01-15T05:04:54.665Z,1027.25
2023-01-15T05:05:55.329Z,1027.27
2023-01-15T05:06:55.929Z,1027.27
2023-01-15T05:07:56.527Z,1027.34
2023-01-15T05:08:57.127Z,1027.31
2023-01-15T05:09:57.721Z,1027.34
2023-01-15T05:10:58.325Z,1027.29
2023-01-15T05:11:58.919Z,1027.31
2023-01-15T05:12:59.520Z,1027.40
2023-01-15T05:14:00.119Z,1027.34
2023-01-15T05:15:00.717Z,1027.43
2023-01-15T05:16:01.320Z,1027.44
2023-01-15T05:17:01.922Z,1027.40
2023-01-15T05:18:02.512Z,1027.39
2023-01-15T05:19:03.115Z,1027.38
2023-01-15T05:20:03.704Z,1027.43
2023-01-15T05:21:04.313Z,1027.42
2023-01-15T05:22:04.902Z,1027.39
2023-01-15T05:23:05.551Z,1027.42
2023-01-15T05:24:06.144Z,1027.48
2023-01-15T05:25:06.796Z,1027.36
2023-01-15T05:26:07.389Z,1027.42
2023-01-15T05:27:07.992Z,1027.39
2023-01-15T05:28:08.584Z,1027.35
2023-01-15T05:29:09.187Z,1027.35
2023-01-15T05:30:09.786Z,1027.36
2023-01-15T05:31:10.521Z,1027.29
2023-01-15T05:32:11.127Z,1027.35
2023-01-15T05:33:12.527Z,1027.40
2023-01-15T05:34:13.128Z,1027.37
2023-01-15T05:35:13.731Z,1027.41
2023-01-15T05:36:14.406Z,1027.39
2023-01-15T05:37:15.064Z,1027.41
2023-01-15T05:38:15.654Z,1027.39
2023-01-15T05:39:16.307Z,1027.35
2023-01-15T05:40:16.929Z,1027.38
2023-01-15T05:41:17.576Z,1027.33
2023-01-15T05:42:18.168Z,1027.22
2023-01-15T05:43:18.775Z,1027.21
2023-01-15T05:44:19.364Z,1027.20
2023-01-15T05:45:19.970Z,1027.22
2023-01-15T05:46:20.659Z,1027.20
2023-01-15T05:47:21.244Z,1027.30
2023-01-15T05:48:21.840Z,1027.28
2023-01-15T05:49:22.443Z,1027.28
2023-01-15T05:50:23.033Z,1027.32
2023-01-15T05:51:23.633Z,1027.40
2023-01-15T05:52:24.228Z,1027.36
2023-01-15T05:53:24.830Z,1027.44
2023-01-15T05:54:25.432Z,1027.36
2023-01-15T05:55:26.023Z,1027.40
2023-01-15T05:56:26.678Z,1027.33
2023-01-15T05:57:27.324Z,1027.40
2023-01-15T05:58:27.912Z,1027.34
2023-01-15T05:59:28.566Z,1027.40
2023-01-15T06:00:30.543Z,1027.43
2023-01-15T06:01:30.813Z,1027.43
2023-01-15T06:02:31.540Z,1027.47
2023-01-15T06:03:32.199Z,1027.59
2023-01-15T06:04:32.797Z,1027.61
2023-01-15T06:05:33.395Z,1027.59
2023-01-15T06:06:33.990Z,1027.65
2023-01-15T06:07:34.590Z,1027.71
2023-01-15T06:08:35.184Z,1027.70
2023-01-15T06:09:35.785Z,1027.70
2023-01-15T06:10:37.231Z,1027.67
2023-01-15T06:11:37.837Z,1027.77
2023-01-15T06:12:38.425Z,1027.87
2023-01-15T06:13:39.038Z,1027.90
2023-01-15T06:14:39.628Z,1027.95
2023-01-15T06:15:40.248Z,1027.92
2023-01-15T06:16:41.562Z,1027.91
2023-01-15T06:17:42.246Z,1027.99
2023-01-15T06:18:42.879Z,1028.05
2023-01-15T06:19:43.471Z,1027.99
2023-01-15T06:20:44.058Z,1028.02
2023-01-15T06:21:44.665Z,1028.00
2023-01-15T06:22:45.320Z,1028.03
2023-01-15T06:23:45.924Z,1028.05
2023-01-15T06:24:46.516Z,1028.07
2023-01-15T06:25:47.124Z,1028.05
2023-01-15T06:26:47.729Z,1028.04
2023-01-15T06:27:48.313Z,1028.15
2023-01-15T06:28:48.910Z,1028.12
2023-01-15T06:29:49.511Z,1028.23
2023-01-15T06:30:50.157Z,1028.17
2023-01-15T06:31:50.882Z,1028.18
2023-01-15T06:32:51.472Z,1028.25
2023-01-15T06:33:52.139Z,1028.23
2023-01-15T06:34:52.723Z,1028.22
2023-01-15T06:35:53.387Z,1028.25
2023-01-15T06:36:54.030Z,1028.30
2023-01-15T06:37:54.645Z,1028.27
2023-01-15T06:38:55.231Z,1028.30
2023-01-15T06:39:55.889Z,1028.33
2023-01-15T06:40:56.484Z,1028.36
2023-01-15T06:41:57.137Z,1028.38
2023-01-15T06:42:57.734Z,1028.36
2023-01-15T06:43:58.335Z,1028.37
2023-01-15T06:44:59.780Z,1028.41
2023-01-15T06:46:00.385Z,1028.33
2023-01-15T06:47:01.000Z,1028.41
2023-01-15T06:48:01.581Z,1028.41
2023-01-15T06:49:02.178Z,1028.34
2023-01-15T06:50:02.784Z,1028.41
2023-01-15T06:51:03.373Z,1028.48
2023-01-15T06:52:03.991Z,1028.44
2023-01-15T06:53:04.577Z,1028.40
2023-01-15T06:54:05.182Z,1028.41
2023-01-15T06:55:05.776Z,1028.40
2023-01-15T06:56:06.393Z,1028.52
2023-01-15T06:57:07.007Z,1028.48
2023-01-15T06:58:07.603Z,1028.52
2023-01-15T06:59:08.199Z,1028.46
2023-01-15T07:00:08.798Z,1028.59
2023-01-15T07:01:09.490Z,1028.65
2023-01-15T07:02:10.152Z,1028.56
2023-01-15T07:03:10.745Z,1028.60
2023-01-15T07:04:11.364Z,1028.57
2023-01-15T07:05:11.943Z,1028.65
2023-01-15T07:06:12.549Z,1028.66
2023-01-15T07:07:13.142Z,1028.65
2023-01-15T07:08:13.743Z,1028.70
2023-01-15T07:09:14.344Z,1028.72
2023-01-15T07:10:15.000Z,1028.87
2023-01-15T07:11:15.590Z,1028.83
2023-01-15T07:12:16.198Z,1028.84
2023-01-15T07:13:16.860Z,1028.71
2023-01-15T07:14:17.461Z,1028.75
2023-01-15T07:15:18.054Z,1028.79
2023-01-15T07:16:18.689Z,1028.84
2023-01-15T07:17:19.279Z,1028.89
2023-01-15T07:18:19.881Z,1028.83
2023-01-15T07:19:20.495Z,1028.83
2023-01-15T07:20:21.145Z,1028.89
2023-01-15T07:21:21.727Z,1028.87
2023-01-15T07:22:22.327Z,1028.86
2023-01-15T07:23:22.921Z,1028.85
2023-01-15T07:24:23.522Z,1028.90
2023-01-15T07:25:24.120Z,1028.92
2023-01-15T07:26:24.734Z,1028.84
2023-01-15T07:27:25.313Z,1028.91
2023-01-15T07:28:25.921Z,1028.94
2023-01-15T07:29:26.510Z,1028.94
2023-01-15T07:30:27.120Z,1028.91
2023-01-15T07:31:27.755Z,1028.98
2023-01-15T07:32:28.359Z,1028.96
2023-01-15T07:33:28.953Z,1028.92
2023-01-15T07:34:30.406Z,1028.99
2023-01-15T07:35:31.009Z,1029.07
2023-01-15T07:36:31.823Z,1029.03
2023-01-15T07:37:32.489Z,1029.06
2023-01-15T07:38:33.202Z,1029.07
2023-01-15T07:39:33.795Z,1029.14
2023-01-15T07:40:34.400Z,1029.10
2023-01-15T07:41:35.072Z,1029.09
2023-01-15T07:42:35.667Z,1029.07
2023-01-15T07:43:36.333Z,1029.12
2023-01-15T07:44:36.947Z,1029.14
2023-01-15T07:45:37.603Z,1029.09
2023-01-15T07:46:39.056Z,1029.20
2023-01-15T07:47:39.649Z,1029.16
2023-01-15T07:48:40.258Z,1029.24
2023-01-15T07:49:40.852Z,1029.16
2023-01-15T07:50:41.482Z,1029.27
2023-01-15T07:51:42.087Z,1029.18
2023-01-15T07:52:42.844Z,1029.27
2023-01-15T07:53:43.453Z,1029.30
2023-01-15T07:54:44.048Z,1029.31
2023-01-15T07:55:44.648Z,1029.34
2023-01-15T07:56:45.308Z,1029.35
2023-01-15T07:57:45.903Z,1029.29
2023-01-15T07:58:47.310Z,1029.28
2023-01-15T07:59:47.903Z,1029.31
2023-01-15T08:00:48.562Z,1029.25
2023-01-15T08:01:49.359Z,1029.27
2023-01-15T08:02:49.990Z,1029.25
2023-01-15T08:03:50.636Z,1029.34
2023-01-15T08:04:51.257Z,1029.29
2023-01-15T08:05:51.846Z,1029.37
2023-01-15T08:06:52.450Z,1029.31
2023-01-15T08:07:53.047Z,1029.34
2023-01-15T08:08:53.645Z,1029.36
2023-01-15T08:09:54.241Z,1029.35
2023-01-15T08:10:54.845Z,1029.26
2023-01-15T08:11:55.439Z,1029.30
2023-01-15T08:12:57.520Z,1029.23
2023-01-15T08:13:57.629Z,1029.29
2023-01-15T08:14:58.230Z,1029.31
2023-01-15T08:15:58.828Z,1029.29
2023-01-15T08:16:59.492Z,1029.28
2023-01-15T08:18:00.118Z,1029.40
2023-01-15T08:19:00.706Z,1029.34
2023-01-15T08:20:01.316Z,1029.40
2023-01-15T08:21:01.903Z,1029.34
2023-01-15T08:22:02.501Z,1029.41
2023-01-15T08:23:03.100Z,1029.44
2023-01-15T08:24:03.693Z,1029.44
2023-01-15T08:25:04.353Z,1029.49
2023-01-15T08:26:04.950Z,1029.49
2023-01-15T08:27:05.550Z,1029.56
2023-01-15T08:28:06.146Z,1029.42
2023-01-15T08:29:06.748Z,1029.56
2023-01-15T08:30:07.344Z,1029.60
2023-01-15T08:31:07.946Z,1029.54
2023-01-15T08:32:08.541Z,1029.58
2023-01-15T08:33:09.142Z,1029.65
2023-01-15T08:34:09.748Z,1029.60
2023-01-15T08:35:10.335Z,1029.63
2023-01-15T08:36:10.931Z,1029.66
2023-01-15T08:37:11.556Z,1029.71
2023-01-15T08:38:12.166Z,1029.69
2023-01-15T08:39:13.611Z,1029.77
2023-01-15T08:40:14.211Z,1029.82
2023-01-15T08:41:14.807Z,1029.87
2023-01-15T08:42:16.215Z,1029.85
2023-01-15T08:43:16.809Z,1029.86
2023-01-15T08:44:17.407Z,1029.77
2023-01-15T08:45:18.810Z,1029.78
2023-01-15T08:46:19.404Z,1029.77
2023-01-15T08:47:19.999Z,1029.86
2023-01-15T08:48:21.403Z,1029.82
2023-01-15T08:49:22.801Z,1029.86
2023-01-15T08:50:23.479Z,1029.86
2023-01-15T08:51:24.054Z,1029.94
2023-01-15T08:52:24.668Z,1029.95
2023-01-15T08:53:25.318Z,1029.95
2023-01-15T08:54:25.921Z,1029.92
2023-01-15T08:55:26.765Z,1029.87
2023-01-15T08:56:27.374Z,1029.95
2023-01-15T08:57:27.963Z,1029.97
2023-01-15T08:58:28.570Z,1029.94
2023-01-15T08:59:29.162Z,1030.05
2023-01-15T09:00:29.767Z,1030.11
2023-01-15T09:01:30.432Z,1030.08
2023-01-15T09:02:31.128Z,1030.03
2023-01-15T09:03:31.769Z,1030.10
2023-01-15T09:04:32.409Z,1030.10
2023-01-15T09:05:33.013Z,1030.14
2023-01-15T09:06:33.611Z,1030.18
2023-01-15T09:07:35.076Z,1030.21
2023-01-15T09:08:35.691Z,1030.20
2023-01-15T09:09:36.329Z,1030.21
2023-01-15T09:10:36.924Z,1030.20
2023-01-15T09:11:37.523Z,1030.23
2023-01-15T09:12:38.120Z,1030.19
2023-01-15T09:13:38.936Z,1030.24
2023-01-15T09:14:56.565Z,1030.29
2023-01-15T09:15:41.065Z,1030.40
2023-01-15T09:16:41.785Z,1030.40
2023-01-15T09:17:42.379Z,1030.39
2023-01-15T09:18:42.980Z,1030.39
2023-01-15T09:19:43.573Z,1030.40
2023-01-15T09:20:44.175Z,1030.45
2023-01-15T09:21:44.767Z,1030.39
2023-01-15T09:22:45.375Z,1030.51
2023-01-15T09:23:45.976Z,1030.52
2023-01-15T09:24:46.570Z,1030.65
2023-01-15T09:25:47.158Z,1030.67
2023-01-15T09:26:47.797Z,1030.65
2023-01-15T09:27:48.389Z,1030.68
2023-01-15T09:28:48.993Z,1030.61
2023-01-15T09:29:49.589Z,1030.60
2023-01-15T09:30:50.262Z,1030.66
2023-01-15T09:31:50.854Z,1030.71
2023-01-15T09:32:51.458Z,1030.71
2023-01-15T09:33:52.112Z,1030.74
2023-01-15T09:34:52.733Z,1030.72
2023-01-15T09:35:53.375Z,1030.79
2023-01-15T09:36:53.981Z,1030.83
2023-01-15T09:37:54.581Z,1030.83
2023-01-15T09:38:55.241Z,1030.90
2023-01-15T09:39:55.836Z,1030.95
2023-01-15T09:40:56.446Z,1030.95
2023-01-15T09:41:57.861Z,1031.01
2023-01-15T09:42:58.495Z,1031.03
2023-01-15T09:43:59.088Z,1031.04
2023-01-15T09:44:59.690Z,1031.12
2023-01-15T09:46:00.337Z,1031.18
2023-01-15T09:47:00.949Z,1031.22
2023-01-15T09:48:02.396Z,1031.21
2023-01-15T09:49:03.912Z,1031.16
2023-01-15T09:50:04.572Z,1031.13
2023-01-15T09:51:05.160Z,1031.11
2023-01-15T09:52:05.747Z,1031.20
2023-01-15T09:53:06.351Z,1031.26
2023-01-15T09:54:06.951Z,1031.20
2023-01-15T09:55:08.394Z,1031.25
2023-01-15T09:56:08.988Z,1031.25
2023-01-15T09:57:09.597Z,1031.27
2023-01-15T09:58:10.186Z,1031.24
2023-01-15T09:59:10.789Z,1031.17
2023-01-15T10:00:11.384Z,1031.27
2023-01-15T10:01:12.025Z,1031.36
2023-01-15T10:02:12.624Z,1031.28
2023-01-15T10:03:13.292Z,1031.31
2023-01-15T10:04:13.960Z,1031.33
2023-01-15T10:05:14.611Z,1031.29
2023-01-15T10:06:15.206Z,1031.40
2023-01-15T10:07:15.809Z,1031.46
2023-01-15T10:08:16.475Z,1031.42
2023-01-15T10:09:17.084Z,1031.41
2023-01-15T10:10:18.372Z,1031.52
2023-01-15T10:11:19.038Z,1031.42
2023-01-15T10:12:19.702Z,1031.50
2023-01-15T10:13:20.315Z,1031.55
2023-01-15T10:14:20.899Z,1031.49
2023-01-15T10:15:21.501Z,1031.48
2023-01-15T10:16:22.102Z,1031.56
2023-01-15T10:17:22.747Z,1031.50
2023-01-15T10:18:23.343Z,1031.54
2023-01-15T10:19:23.995Z,1031.54
2023-01-15T10:20:24.597Z,1031.61
2023-01-15T10:21:25.196Z,1031.60
2023-01-15T10:22:25.793Z,1031.62
2023-01-15T10:23:26.399Z,1031.59
2023-01-15T10:24:26.997Z,1031.52
2023-01-15T10:25:27.617Z,1031.63
2023-01-15T10:26:28.206Z,1031.67
2023-01-15T10:27:28.804Z,1031.67
2023-01-15T10:28:29.409Z,1031.64
2023-01-15T10:29:30.003Z,1031.62
2023-01-15T10:30:30.597Z,1031.58
2023-01-15T10:31:31.198Z,1031.59
2023-01-15T10:32:31.792Z,1031.58
2023-01-15T10:33:32.398Z,1031.58
2023-01-15T10:34:32.998Z,1031.70
2023-01-15T10:35:33.595Z,1031.66
2023-01-15T10:36:34.193Z,1031.68
2023-01-15T10:37:34.797Z,1031.72
2023-01-15T10:38:35.389Z,1031.79
2023-01-15T10:39:35.996Z,1031.74
2023-01-15T10:40:36.590Z,1031.77
2023-01-15T10:41:37.197Z,1031.74
2023-01-15T10:42:37.792Z,1031.78
2023-01-15T10:43:38.398Z,1031.81
2023-01-15T10:44:39.062Z,1031.81
2023-01-15T10:45:39.664Z,1031.90
2023-01-15T10:46:40.264Z,1031.85
2023-01-15T10:47:40.931Z,1031.83
2023-01-15T10:48:41.523Z,1031.87
2023-01-15T10:49:42.122Z,1031.90
2023-01-15T10:50:42.766Z,1031.91
2023-01-15T10:51:44.221Z,1031.86
2023-01-15T10:52:44.981Z,1031.89
2023-01-15T10:53:45.830Z,1031.90
2023-01-15T10:54:46.430Z,1031.92
2023-01-15T10:55:47.029Z,1031.89
2023-01-15T10:56:47.717Z,1031.94
2023-01-15T10:57:49.009Z,1031.99
2023-01-15T10:58:49.888Z,1031.89
2023-01-15T10:59:50.500Z,1031.83
2023-01-15T11:00:51.090Z,1031.92
2023-01-15T11:01:51.840Z,1031.93
2023-01-15T11:02:52.483Z,1031.93
2023-01-15T11:03:53.079Z,1031.91
2023-01-15T11:04:53.760Z,1031.93
2023-01-15T11:05:54.361Z,1031.92
2023-01-15T11:06:54.954Z,1031.85
2023-01-15T11:08:45.244Z,1031.82
2023-01-15T11:09:12.678Z,1031.84
2023-01-15T11:09:58.740Z,1031.75
2023-01-15T11:10:59.338Z,1031.77
2023-01-15T11:12:00.038Z,1031.77
2023-01-15T11:13:00.674Z,1031.74
2023-01-15T11:14:01.278Z,1031.76
2023-01-15T11:15:01.875Z,1031.73
2023-01-15T11:16:02.510Z,1031.75
2023-01-15T11:17:03.138Z,1031.70
2023-01-15T11:18:03.749Z,1031.70
2023-01-15T11:19:04.386Z,1031.81
2023-01-15T11:20:04.966Z,1031.75
2023-01-15T11:21:05.559Z,1031.80
2023-01-15T11:22:06.369Z,1031.76
2023-01-15T11:23:06.959Z,1031.71
2023-01-15T11:24:07.611Z,1031.68
2023-01-15T11:25:08.208Z,1031.76
2023-01-15T11:26:08.817Z,1031.82
2023-01-15T11:27:09.408Z,1031.81
2023-01-15T11:28:10.016Z,1031.86
2023-01-15T11:29:10.681Z,1031.83
2023-01-15T11:30:11.289Z,1031.79
2023-01-15T11:31:11.959Z,1031.79
2023-01-15T11:32:12.586Z,1031.80
2023-01-15T11:33:13.179Z,1031.80
2023-01-15T11:34:13.790Z,1031.82
2023-01-15T11:35:14.377Z,1031.78
2023-01-15T11:36:14.984Z,1031.83
2023-01-15T11:37:15.577Z,1031.83
2023-01-15T11:38:16.182Z,1031.78
2023-01-15T11:39:16.777Z,1031.80
2023-01-15T11:40:17.381Z,1031.88
2023-01-15T11:41:17.976Z,1031.98
2023-01-15T11:42:18.578Z,1031.90
2023-01-15T11:43:19.181Z,1031.93
2023-01-15T11:44:19.780Z,1031.91
2023-01-15T11:45:20.373Z,1031.85
2023-01-15T11:46:21.000Z,1031.79
2023-01-15T11:47:21.595Z,1031.86
2023-01-15T11:48:22.195Z,1031.79
2023-01-15T11:49:22.803Z,1031.73
2023-01-15T11:50:23.390Z,1031.79
2023-01-15T11:51:23.988Z,1031.79
2023-01-15T11:52:24.595Z,1031.71
2023-01-15T11:53:25.183Z,1031.78
2023-01-15T11:54:25.796Z,1031.78
2023-01-15T11:55:26.384Z,1031.80
2023-01-15T11:56:27.063Z,1031.79
2023-01-15T11:57:27.703Z,1031.80
2023-01-15T11:58:28.365Z,1031.81
2023-01-15T11:59:28.960Z,1031.74
2023-01-15T12:00:29.591Z,1031.71
2023-01-15T12:01:30.313Z,1031.69
2023-01-15T12:02:30.925Z,1031.71
2023-01-15T12:03:31.603Z,1031.72
2023-01-15T12:04:32.246Z,1031.77
2023-01-15T12:05:32.861Z,1031.79
2023-01-15T12:06:33.489Z,1031.76
2023-01-15T12:07:34.248Z,1031.75
2023-01-15T12:08:34.871Z,1031.68
2023-01-15T12:09:36.307Z,1031.77
2023-01-15T12:10:36.963Z,1031.82
2023-01-15T12:11:37.558Z,1031.78
2023-01-15T12:12:38.160Z,1031.86
2023-01-15T12:13:38.756Z,1031.80